sensor_id;sensor_type;location;lat;lon;timestamp;P1;durP1;ratioP1;P2;durP2;ratioP2
11691;SDS011;33659;42.672;23.354;2024-01-27T00:02:09;6.50;;;2.50;;
11691;SDS011;33659;42.672;23.354;2024-01-27T00:04:36;5.43;;;2.70;;
11691;SDS011;33659;42.672;23.354;2024-01-27T00:07:03;2.90;;;2.33;;
11691;SDS011;33659;42.672;23.354;2024-01-27T00:09:30;3.87;;;2.50;;
11691;SDS011;33659;42.672;23.354;2024-01-27T00:11:59;3.87;;;2.30;;
11691;SDS011;33659;42.672;23.354;2024-01-27T00:14:26;5.20;;;2.53;;
11691;SDS011;33659;42.672;23.354;2024-01-27T00:16:52;6.17;;;2.50;;
11691;SDS011;33659;42.672;23.354;2024-01-27T00:19:19;4.70;;;2.57;;
11691;SDS011;33659;42.672;23.354;2024-01-27T00:21:46;6.03;;;2.53;;
11691;SDS011;33659;42.672;23.354;2024-01-27T00:24:13;2.87;;;2.40;;
11691;SDS011;33659;42.672;23.354;2024-01-27T00:26:40;3.93;;;2.47;;
11691;SDS011;33659;42.672;23.354;2024-01-27T00:29:07;4.10;;;2.47;;
11691;SDS011;33659;42.672;23.354;2024-01-27T00:31:34;6.10;;;3.07;;
11691;SDS011;33659;42.672;23.354;2024-01-27T00:34:01;3.27;;;2.57;;
11691;SDS011;33659;42.672;23.354;2024-01-27T00:36:27;4.47;;;2.40;;
11691;SDS011;33659;42.672;23.354;2024-01-27T00:38:54;5.73;;;2.60;;
11691;SDS011;33659;42.672;23.354;2024-01-27T00:41:21;3.37;;;2.30;;
11691;SDS011;33659;42.672;23.354;2024-01-27T00:43:47;2.87;;;2.47;;
11691;SDS011;33659;42.672;23.354;2024-01-27T00:46:15;4.40;;;2.30;;
11691;SDS011;33659;42.672;23.354;2024-01-27T00:48:42;5.13;;;2.77;;
11691;SDS011;33659;42.672;23.354;2024-01-27T00:51:09;3.03;;;2.13;;
11691;SDS011;33659;42.672;23.354;2024-01-27T00:53:35;3.50;;;2.57;;
11691;SDS011;33659;42.672;23.354;2024-01-27T00:56:02;4.73;;;2.63;;
11691;SDS011;33659;42.672;23.354;2024-01-27T00:58:29;6.13;;;2.63;;
11691;SDS011;33659;42.672;23.354;2024-01-27T01:00:56;2.47;;;2.07;;
11691;SDS011;33659;42.672;23.354;2024-01-27T01:03:24;3.93;;;2.17;;
11691;SDS011;33659;42.672;23.354;2024-01-27T01:05:51;3.37;;;2.73;;
11691;SDS011;33659;42.672;23.354;2024-01-27T01:08:18;2.83;;;1.93;;
11691;SDS011;33659;42.672;23.354;2024-01-27T01:10:44;4.40;;;2.73;;
11691;SDS011;33659;42.672;23.354;2024-01-27T01:13:11;2.30;;;2.10;;
11691;SDS011;33659;42.672;23.354;2024-01-27T01:15:38;5.77;;;2.27;;
11691;SDS011;33659;42.672;23.354;2024-01-27T01:18:05;5.40;;;2.47;;
11691;SDS011;33659;42.672;23.354;2024-01-27T01:20:33;2.70;;;2.17;;
11691;SDS011;33659;42.672;23.354;2024-01-27T01:22:59;6.50;;;2.67;;
11691;SDS011;33659;42.672;23.354;2024-01-27T01:25:26;6.80;;;2.50;;
11691;SDS011;33659;42.672;23.354;2024-01-27T01:27:53;5.83;;;2.10;;
11691;SDS011;33659;42.672;23.354;2024-01-27T01:30:19;5.90;;;2.50;;
11691;SDS011;33659;42.672;23.354;2024-01-27T01:32:46;7.57;;;2.70;;
11691;SDS011;33659;42.672;23.354;2024-01-27T01:35:13;5.67;;;2.47;;
11691;SDS011;33659;42.672;23.354;2024-01-27T01:37:41;5.17;;;2.33;;
11691;SDS011;33659;42.672;23.354;2024-01-27T01:40:08;3.00;;;2.60;;
11691;SDS011;33659;42.672;23.354;2024-01-27T01:42:35;3.17;;;2.30;;
11691;SDS011;33659;42.672;23.354;2024-01-27T01:45:02;5.53;;;2.40;;
11691;SDS011;33659;42.672;23.354;2024-01-27T01:47:29;5.37;;;2.60;;
11691;SDS011;33659;42.672;23.354;2024-01-27T01:49:55;6.47;;;2.87;;
11691;SDS011;33659;42.672;23.354;2024-01-27T01:52:24;7.87;;;2.83;;
11691;SDS011;33659;42.672;23.354;2024-01-27T01:54:52;4.00;;;2.10;;
11691;SDS011;33659;42.672;23.354;2024-01-27T01:57:19;7.80;;;2.50;;
11691;SDS011;33659;42.672;23.354;2024-01-27T01:59:46;4.53;;;2.10;;
11691;SDS011;33659;42.672;23.354;2024-01-27T02:02:12;2.50;;;2.17;;
11691;SDS011;33659;42.672;23.354;2024-01-27T02:04:40;2.83;;;2.33;;
11691;SDS011;33659;42.672;23.354;2024-01-27T02:07:07;8.30;;;3.00;;
11691;SDS011;33659;42.672;23.354;2024-01-27T02:09:33;4.87;;;2.40;;
11691;SDS011;33659;42.672;23.354;2024-01-27T02:12:02;2.87;;;2.40;;
11691;SDS011;33659;42.672;23.354;2024-01-27T02:14:29;4.27;;;2.43;;
11691;SDS011;33659;42.672;23.354;2024-01-27T02:16:55;3.23;;;2.50;;
11691;SDS011;33659;42.672;23.354;2024-01-27T02:19:22;5.70;;;2.73;;
11691;SDS011;33659;42.672;23.354;2024-01-27T02:21:49;7.27;;;2.47;;
11691;SDS011;33659;42.672;23.354;2024-01-27T02:24:17;4.57;;;2.77;;
11691;SDS011;33659;42.672;23.354;2024-01-27T02:26:44;4.60;;;2.10;;
11691;SDS011;33659;42.672;23.354;2024-01-27T02:29:11;5.77;;;3.00;;
11691;SDS011;33659;42.672;23.354;2024-01-27T02:31:37;6.93;;;2.67;;
11691;SDS011;33659;42.672;23.354;2024-01-27T02:34:04;5.13;;;2.33;;
11691;SDS011;33659;42.672;23.354;2024-01-27T02:36:31;6.20;;;2.47;;
11691;SDS011;33659;42.672;23.354;2024-01-27T02:38:57;5.30;;;2.40;;
11691;SDS011;33659;42.672;23.354;2024-01-27T02:41:25;6.57;;;2.37;;
11691;SDS011;33659;42.672;23.354;2024-01-27T02:43:52;4.67;;;2.73;;
11691;SDS011;33659;42.672;23.354;2024-01-27T02:46:18;6.60;;;2.93;;
11691;SDS011;33659;42.672;23.354;2024-01-27T02:48:45;3.70;;;2.53;;
11691;SDS011;33659;42.672;23.354;2024-01-27T02:51:12;5.03;;;2.83;;
11691;SDS011;33659;42.672;23.354;2024-01-27T02:53:39;9.53;;;3.03;;
11691;SDS011;33659;42.672;23.354;2024-01-27T02:56:06;5.13;;;2.73;;
11691;SDS011;33659;42.672;23.354;2024-01-27T02:58:35;4.60;;;2.87;;
11691;SDS011;33659;42.672;23.354;2024-01-27T03:01:01;8.27;;;3.30;;
11691;SDS011;33659;42.672;23.354;2024-01-27T03:03:28;8.67;;;3.30;;
11691;SDS011;33659;42.672;23.354;2024-01-27T03:05:55;8.50;;;3.00;;
11691;SDS011;33659;42.672;23.354;2024-01-27T03:08:22;6.10;;;3.53;;
11691;SDS011;33659;42.672;23.354;2024-01-27T03:10:48;7.97;;;3.20;;
11691;SDS011;33659;42.672;23.354;2024-01-27T03:13:15;6.17;;;3.10;;
11691;SDS011;33659;42.672;23.354;2024-01-27T03:15:43;3.63;;;2.80;;
11691;SDS011;33659;42.672;23.354;2024-01-27T03:18:10;5.27;;;2.87;;
11691;SDS011;33659;42.672;23.354;2024-01-27T03:20:37;5.60;;;3.40;;
11691;SDS011;33659;42.672;23.354;2024-01-27T03:23:03;4.07;;;2.67;;
11691;SDS011;33659;42.672;23.354;2024-01-27T03:25:30;3.27;;;2.63;;
11691;SDS011;33659;42.672;23.354;2024-01-27T03:27:57;4.03;;;2.17;;
11691;SDS011;33659;42.672;23.354;2024-01-27T03:30:23;4.30;;;2.10;;
11691;SDS011;33659;42.672;23.354;2024-01-27T03:32:51;3.03;;;2.47;;
11691;SDS011;33659;42.672;23.354;2024-01-27T03:35:18;2.97;;;2.10;;
11691;SDS011;33659;42.672;23.354;2024-01-27T03:37:45;3.07;;;2.30;;
11691;SDS011;33659;42.672;23.354;2024-01-27T03:40:12;2.07;;;1.87;;
11691;SDS011;33659;42.672;23.354;2024-01-27T03:42:38;2.00;;;1.70;;
11691;SDS011;33659;42.672;23.354;2024-01-27T03:45:05;3.83;;;1.87;;
11691;SDS011;33659;42.672;23.354;2024-01-27T03:47:32;2.43;;;1.83;;
11691;SDS011;33659;42.672;23.354;2024-01-27T03:50:00;2.30;;;2.10;;
11691;SDS011;33659;42.672;23.354;2024-01-27T03:52:27;3.67;;;2.00;;
11691;SDS011;33659;42.672;23.354;2024-01-27T03:54:54;6.27;;;2.30;;
11691;SDS011;33659;42.672;23.354;2024-01-27T03:57:20;6.27;;;2.40;;
11691;SDS011;33659;42.672;23.354;2024-01-27T03:59:47;6.40;;;2.63;;
11691;SDS011;33659;42.672;23.354;2024-01-27T04:02:13;4.43;;;1.93;;
11691;SDS011;33659;42.672;23.354;2024-01-27T04:04:40;3.27;;;2.13;;
11691;SDS011;33659;42.672;23.354;2024-01-27T04:07:08;4.53;;;2.10;;
11691;SDS011;33659;42.672;23.354;2024-01-27T04:09:35;5.63;;;2.17;;
11691;SDS011;33659;42.672;23.354;2024-01-27T04:12:01;3.33;;;2.17;;
11691;SDS011;33659;42.672;23.354;2024-01-27T04:14:28;5.50;;;2.20;;
11691;SDS011;33659;42.672;23.354;2024-01-27T04:16:55;2.97;;;1.97;;
11691;SDS011;33659;42.672;23.354;2024-01-27T04:19:21;1.83;;;1.73;;
11691;SDS011;33659;42.672;23.354;2024-01-27T04:21:48;2.50;;;1.90;;
11691;SDS011;33659;42.672;23.354;2024-01-27T04:24:16;2.40;;;2.20;;
11691;SDS011;33659;42.672;23.354;2024-01-27T04:26:43;5.70;;;2.50;;
11691;SDS011;33659;42.672;23.354;2024-01-27T04:29:09;2.97;;;2.00;;
11691;SDS011;33659;42.672;23.354;2024-01-27T04:31:40;5.27;;;2.40;;
11691;SDS011;33659;42.672;23.354;2024-01-27T04:34:06;4.30;;;2.30;;
11691;SDS011;33659;42.672;23.354;2024-01-27T04:36:33;2.43;;;1.60;;
11691;SDS011;33659;42.672;23.354;2024-01-27T04:39:00;3.27;;;2.00;;
11691;SDS011;33659;42.672;23.354;2024-01-27T04:41:28;3.47;;;2.47;;
11691;SDS011;33659;42.672;23.354;2024-01-27T04:43:54;3.37;;;2.07;;
11691;SDS011;33659;42.672;23.354;2024-01-27T04:46:22;2.73;;;2.03;;
11691;SDS011;33659;42.672;23.354;2024-01-27T04:48:49;2.60;;;2.30;;
11691;SDS011;33659;42.672;23.354;2024-01-27T04:51:15;2.90;;;2.03;;
11691;SDS011;33659;42.672;23.354;2024-01-27T04:53:42;5.33;;;1.93;;
11691;SDS011;33659;42.672;23.354;2024-01-27T04:56:08;4.60;;;2.10;;
11691;SDS011;33659;42.672;23.354;2024-01-27T04:58:39;4.13;;;2.33;;
11691;SDS011;33659;42.672;23.354;2024-01-27T05:01:06;4.57;;;2.13;;
11691;SDS011;33659;42.672;23.354;2024-01-27T05:03:33;2.57;;;1.90;;
11691;SDS011;33659;42.672;23.354;2024-01-27T05:06:00;2.97;;;2.50;;
11691;SDS011;33659;42.672;23.354;2024-01-27T05:08:27;3.73;;;2.13;;
11691;SDS011;33659;42.672;23.354;2024-01-27T05:10:53;4.73;;;2.23;;
11691;SDS011;33659;42.672;23.354;2024-01-27T05:13:20;5.47;;;2.40;;
11691;SDS011;33659;42.672;23.354;2024-01-27T05:15:48;2.13;;;1.93;;
11691;SDS011;33659;42.672;23.354;2024-01-27T05:18:15;2.43;;;1.97;;
11691;SDS011;33659;42.672;23.354;2024-01-27T05:20:41;3.17;;;2.30;;
11691;SDS011;33659;42.672;23.354;2024-01-27T05:23:08;2.90;;;2.27;;
11691;SDS011;33659;42.672;23.354;2024-01-27T05:25:35;3.97;;;2.27;;
11691;SDS011;33659;42.672;23.354;2024-01-27T05:28:01;2.37;;;1.90;;
11691;SDS011;33659;42.672;23.354;2024-01-27T05:30:28;3.90;;;2.10;;
11691;SDS011;33659;42.672;23.354;2024-01-27T05:32:56;2.50;;;2.00;;
11691;SDS011;33659;42.672;23.354;2024-01-27T05:35:23;3.80;;;1.90;;
11691;SDS011;33659;42.672;23.354;2024-01-27T05:37:50;5.90;;;2.43;;
11691;SDS011;33659;42.672;23.354;2024-01-27T05:40:17;3.17;;;2.20;;
11691;SDS011;33659;42.672;23.354;2024-01-27T05:42:44;2.77;;;2.20;;
11691;SDS011;33659;42.672;23.354;2024-01-27T05:45:11;3.53;;;2.50;;
11691;SDS011;33659;42.672;23.354;2024-01-27T05:47:38;4.10;;;1.97;;
11691;SDS011;33659;42.672;23.354;2024-01-27T05:50:06;2.43;;;2.17;;
11691;SDS011;33659;42.672;23.354;2024-01-27T05:52:34;2.43;;;2.23;;
11691;SDS011;33659;42.672;23.354;2024-01-27T05:55:01;3.87;;;1.93;;
11691;SDS011;33659;42.672;23.354;2024-01-27T05:57:28;6.10;;;2.40;;
11691;SDS011;33659;42.672;23.354;2024-01-27T05:59:55;3.57;;;2.73;;
11691;SDS011;33659;42.672;23.354;2024-01-27T06:02:21;2.83;;;2.50;;
11691;SDS011;33659;42.672;23.354;2024-01-27T06:04:48;7.47;;;3.07;;
11691;SDS011;33659;42.672;23.354;2024-01-27T06:07:16;3.73;;;2.60;;
11691;SDS011;33659;42.672;23.354;2024-01-27T06:09:42;4.33;;;2.70;;
11691;SDS011;33659;42.672;23.354;2024-01-27T06:12:09;6.60;;;3.30;;
11691;SDS011;33659;42.672;23.354;2024-01-27T06:14:36;8.23;;;3.10;;
11691;SDS011;33659;42.672;23.354;2024-01-27T06:17:03;3.97;;;2.93;;
11691;SDS011;33659;42.672;23.354;2024-01-27T06:19:30;6.70;;;3.83;;
11691;SDS011;33659;42.672;23.354;2024-01-27T06:21:57;3.43;;;2.80;;
11691;SDS011;33659;42.672;23.354;2024-01-27T06:24:25;8.50;;;3.33;;
11691;SDS011;33659;42.672;23.354;2024-01-27T06:26:52;3.43;;;3.13;;
11691;SDS011;33659;42.672;23.354;2024-01-27T06:29:18;7.23;;;3.20;;
11691;SDS011;33659;42.672;23.354;2024-01-27T06:31:45;5.50;;;3.20;;
11691;SDS011;33659;42.672;23.354;2024-01-27T06:34:12;6.63;;;3.67;;
11691;SDS011;33659;42.672;23.354;2024-01-27T06:36:38;5.13;;;3.50;;
11691;SDS011;33659;42.672;23.354;2024-01-27T06:39:05;3.37;;;3.07;;
11691;SDS011;33659;42.672;23.354;2024-01-27T06:41:35;3.93;;;2.90;;
11691;SDS011;33659;42.672;23.354;2024-01-27T06:44:01;2.77;;;2.53;;
11691;SDS011;33659;42.672;23.354;2024-01-27T06:46:29;2.33;;;2.13;;
11691;SDS011;33659;42.672;23.354;2024-01-27T06:48:55;3.47;;;1.63;;
11691;SDS011;33659;42.672;23.354;2024-01-27T06:51:22;1.40;;;1.30;;
11691;SDS011;33659;42.672;23.354;2024-01-27T06:53:49;1.60;;;1.50;;
11691;SDS011;33659;42.672;23.354;2024-01-27T06:56:15;2.00;;;1.90;;
11691;SDS011;33659;42.672;23.354;2024-01-27T06:58:44;2.53;;;1.83;;
11691;SDS011;33659;42.672;23.354;2024-01-27T07:01:10;1.50;;;1.40;;
11691;SDS011;33659;42.672;23.354;2024-01-27T07:03:37;2.20;;;1.50;;
11691;SDS011;33659;42.672;23.354;2024-01-27T07:06:05;1.80;;;1.30;;
11691;SDS011;33659;42.672;23.354;2024-01-27T07:08:31;1.40;;;1.40;;
11691;SDS011;33659;42.672;23.354;2024-01-27T07:10:58;1.57;;;1.47;;
11691;SDS011;33659;42.672;23.354;2024-01-27T07:13:25;1.23;;;1.13;;
11691;SDS011;33659;42.672;23.354;2024-01-27T07:15:55;1.37;;;1.30;;
11691;SDS011;33659;42.672;23.354;2024-01-27T07:18:23;2.03;;;1.90;;
11691;SDS011;33659;42.672;23.354;2024-01-27T07:20:50;2.20;;;1.60;;
11691;SDS011;33659;42.672;23.354;2024-01-27T07:23:17;1.60;;;1.50;;
11691;SDS011;33659;42.672;23.354;2024-01-27T07:25:44;1.73;;;1.43;;
11691;SDS011;33659;42.672;23.354;2024-01-27T07:28:10;1.43;;;1.33;;
11691;SDS011;33659;42.672;23.354;2024-01-27T07:30:37;1.57;;;1.47;;
11691;SDS011;33659;42.672;23.354;2024-01-27T07:33:05;1.30;;;1.30;;
11691;SDS011;33659;42.672;23.354;2024-01-27T07:35:32;2.90;;;2.13;;
11691;SDS011;33659;42.672;23.354;2024-01-27T07:37:58;3.37;;;1.90;;
11691;SDS011;33659;42.672;23.354;2024-01-27T07:40:25;1.87;;;1.60;;
11691;SDS011;33659;42.672;23.354;2024-01-27T07:42:52;2.00;;;1.80;;
11691;SDS011;33659;42.672;23.354;2024-01-27T07:45:19;1.70;;;1.60;;
11691;SDS011;33659;42.672;23.354;2024-01-27T07:47:46;2.17;;;1.97;;
11691;SDS011;33659;42.672;23.354;2024-01-27T07:50:14;1.90;;;1.80;;
11691;SDS011;33659;42.672;23.354;2024-01-27T07:52:40;2.10;;;1.97;;
11691;SDS011;33659;42.672;23.354;2024-01-27T07:55:08;1.97;;;1.87;;
11691;SDS011;33659;42.672;23.354;2024-01-27T07:57:35;1.73;;;1.63;;
11691;SDS011;33659;42.672;23.354;2024-01-27T08:00:02;2.50;;;2.30;;
11691;SDS011;33659;42.672;23.354;2024-01-27T08:02:31;2.93;;;2.00;;
11691;SDS011;33659;42.672;23.354;2024-01-27T08:04:58;2.93;;;2.20;;
11691;SDS011;33659;42.672;23.354;2024-01-27T08:07:26;2.13;;;2.03;;
11691;SDS011;33659;42.672;23.354;2024-01-27T08:09:52;3.17;;;2.17;;
11691;SDS011;33659;42.672;23.354;2024-01-27T08:12:19;3.33;;;2.07;;
11691;SDS011;33659;42.672;23.354;2024-01-27T08:14:46;6.67;;;2.30;;
11691;SDS011;33659;42.672;23.354;2024-01-27T08:17:13;2.47;;;2.17;;
11691;SDS011;33659;42.672;23.354;2024-01-27T08:19:39;3.17;;;2.40;;
11691;SDS011;33659;42.672;23.354;2024-01-27T08:22:06;3.33;;;2.43;;
11691;SDS011;33659;42.672;23.354;2024-01-27T08:24:35;3.07;;;2.80;;
11691;SDS011;33659;42.672;23.354;2024-01-27T08:27:02;4.13;;;2.37;;
11691;SDS011;33659;42.672;23.354;2024-01-27T08:29:30;3.70;;;2.30;;
11691;SDS011;33659;42.672;23.354;2024-01-27T08:31:57;2.87;;;2.60;;
11691;SDS011;33659;42.672;23.354;2024-01-27T08:34:23;2.27;;;2.07;;
11691;SDS011;33659;42.672;23.354;2024-01-27T08:36:50;3.03;;;2.50;;
11691;SDS011;33659;42.672;23.354;2024-01-27T08:39:17;3.10;;;2.17;;
11691;SDS011;33659;42.672;23.354;2024-01-27T08:41:44;3.50;;;2.90;;
11691;SDS011;33659;42.672;23.354;2024-01-27T08:44:11;3.73;;;2.23;;
11691;SDS011;33659;42.672;23.354;2024-01-27T08:46:38;3.33;;;2.70;;
11691;SDS011;33659;42.672;23.354;2024-01-27T08:49:05;2.90;;;2.57;;
11691;SDS011;33659;42.672;23.354;2024-01-27T08:51:31;1.87;;;1.77;;
11691;SDS011;33659;42.672;23.354;2024-01-27T08:53:58;2.33;;;2.13;;
11691;SDS011;33659;42.672;23.354;2024-01-27T08:56:24;2.97;;;2.27;;
11691;SDS011;33659;42.672;23.354;2024-01-27T08:58:52;2.83;;;2.43;;
11691;SDS011;33659;42.672;23.354;2024-01-27T09:01:19;2.00;;;1.90;;
11691;SDS011;33659;42.672;23.354;2024-01-27T09:03:46;3.07;;;2.80;;
11691;SDS011;33659;42.672;23.354;2024-01-27T09:06:13;2.33;;;2.07;;
11691;SDS011;33659;42.672;23.354;2024-01-27T09:08:40;5.63;;;2.10;;
11691;SDS011;33659;42.672;23.354;2024-01-27T09:11:07;3.83;;;2.10;;
11691;SDS011;33659;42.672;23.354;2024-01-27T09:13:34;1.70;;;1.60;;
11691;SDS011;33659;42.672;23.354;2024-01-27T09:16:02;1.67;;;1.67;;
11691;SDS011;33659;42.672;23.354;2024-01-27T09:18:29;2.27;;;2.07;;
11691;SDS011;33659;42.672;23.354;2024-01-27T09:20:56;2.63;;;2.20;;
11691;SDS011;33659;42.672;23.354;2024-01-27T09:23:22;3.00;;;2.00;;
11691;SDS011;33659;42.672;23.354;2024-01-27T09:25:49;1.80;;;1.70;;
11691;SDS011;33659;42.672;23.354;2024-01-27T09:28:16;2.10;;;1.90;;
11691;SDS011;33659;42.672;23.354;2024-01-27T09:30:42;1.80;;;1.70;;
11691;SDS011;33659;42.672;23.354;2024-01-27T09:33:10;1.53;;;1.47;;
11691;SDS011;33659;42.672;23.354;2024-01-27T09:35:37;2.33;;;2.17;;
11691;SDS011;33659;42.672;23.354;2024-01-27T09:38:04;1.67;;;1.60;;
11691;SDS011;33659;42.672;23.354;2024-01-27T09:40:33;1.70;;;1.60;;
11691;SDS011;33659;42.672;23.354;2024-01-27T09:42:59;2.10;;;1.97;;
11691;SDS011;33659;42.672;23.354;2024-01-27T09:45:26;2.07;;;1.97;;
11691;SDS011;33659;42.672;23.354;2024-01-27T09:47:53;1.83;;;1.73;;
11691;SDS011;33659;42.672;23.354;2024-01-27T09:50:23;1.97;;;1.80;;
11691;SDS011;33659;42.672;23.354;2024-01-27T09:52:50;1.80;;;1.70;;
11691;SDS011;33659;42.672;23.354;2024-01-27T09:55:17;2.30;;;1.50;;
11691;SDS011;33659;42.672;23.354;2024-01-27T09:57:44;2.07;;;1.90;;
11691;SDS011;33659;42.672;23.354;2024-01-27T10:00:11;2.27;;;2.10;;
11691;SDS011;33659;42.672;23.354;2024-01-27T10:02:41;2.00;;;1.90;;
11691;SDS011;33659;42.672;23.354;2024-01-27T10:05:09;1.57;;;1.47;;
11691;SDS011;33659;42.672;23.354;2024-01-27T10:07:37;1.93;;;1.83;;
11691;SDS011;33659;42.672;23.354;2024-01-27T10:10:04;1.63;;;1.53;;
11691;SDS011;33659;42.672;23.354;2024-01-27T10:12:32;1.63;;;1.33;;
11691;SDS011;33659;42.672;23.354;2024-01-27T10:15:04;1.80;;;1.70;;
11691;SDS011;33659;42.672;23.354;2024-01-27T10:17:31;3.17;;;2.10;;
11691;SDS011;33659;42.672;23.354;2024-01-27T10:20:01;2.03;;;1.83;;
11691;SDS011;33659;42.672;23.354;2024-01-27T10:22:37;1.73;;;1.63;;
11691;SDS011;33659;42.672;23.354;2024-01-27T10:25:05;2.37;;;1.87;;
11691;SDS011;33659;42.672;23.354;2024-01-27T10:27:33;2.87;;;1.50;;
11691;SDS011;33659;42.672;23.354;2024-01-27T10:30:00;3.70;;;1.97;;
11691;SDS011;33659;42.672;23.354;2024-01-27T10:32:27;1.50;;;1.50;;
11691;SDS011;33659;42.672;23.354;2024-01-27T10:35:01;2.50;;;2.00;;
11691;SDS011;33659;42.672;23.354;2024-01-27T10:37:28;2.03;;;1.80;;
11691;SDS011;33659;42.672;23.354;2024-01-27T10:40:07;1.73;;;1.63;;
11691;SDS011;33659;42.672;23.354;2024-01-27T10:42:34;1.53;;;1.43;;
11691;SDS011;33659;42.672;23.354;2024-01-27T10:45:02;1.77;;;1.67;;
11691;SDS011;33659;42.672;23.354;2024-01-27T10:47:30;1.80;;;1.70;;
11691;SDS011;33659;42.672;23.354;2024-01-27T10:49:59;1.60;;;1.50;;
11691;SDS011;33659;42.672;23.354;2024-01-27T10:52:28;1.60;;;1.50;;
11691;SDS011;33659;42.672;23.354;2024-01-27T10:54:58;2.20;;;2.00;;
11691;SDS011;33659;42.672;23.354;2024-01-27T10:57:27;1.83;;;1.73;;
11691;SDS011;33659;42.672;23.354;2024-01-27T10:59:56;2.90;;;2.00;;
11691;SDS011;33659;42.672;23.354;2024-01-27T11:02:23;1.93;;;1.67;;
11691;SDS011;33659;42.672;23.354;2024-01-27T11:04:49;2.60;;;2.13;;
11691;SDS011;33659;42.672;23.354;2024-01-27T11:07:18;2.90;;;2.33;;
11691;SDS011;33659;42.672;23.354;2024-01-27T11:09:46;2.43;;;2.23;;
11691;SDS011;33659;42.672;23.354;2024-01-27T11:12:15;2.00;;;1.90;;
11691;SDS011;33659;42.672;23.354;2024-01-27T11:14:43;1.93;;;1.50;;
11691;SDS011;33659;42.672;23.354;2024-01-27T11:17:11;2.20;;;2.00;;
11691;SDS011;33659;42.672;23.354;2024-01-27T11:19:39;1.50;;;1.50;;
11691;SDS011;33659;42.672;23.354;2024-01-27T11:22:06;2.87;;;2.10;;
11691;SDS011;33659;42.672;23.354;2024-01-27T11:24:33;2.07;;;1.97;;
11691;SDS011;33659;42.672;23.354;2024-01-27T11:27:00;3.07;;;2.37;;
11691;SDS011;33659;42.672;23.354;2024-01-27T11:29:27;2.53;;;2.40;;
11691;SDS011;33659;42.672;23.354;2024-01-27T11:31:56;2.30;;;2.10;;
11691;SDS011;33659;42.672;23.354;2024-01-27T11:34:23;2.30;;;2.10;;
11691;SDS011;33659;42.672;23.354;2024-01-27T11:36:50;2.20;;;2.00;;
11691;SDS011;33659;42.672;23.354;2024-01-27T11:39:23;1.50;;;1.50;;
11691;SDS011;33659;42.672;23.354;2024-01-27T11:41:51;2.53;;;2.30;;
11691;SDS011;33659;42.672;23.354;2024-01-27T11:44:17;2.93;;;2.40;;
11691;SDS011;33659;42.672;23.354;2024-01-27T11:46:45;2.10;;;2.00;;
11691;SDS011;33659;42.672;23.354;2024-01-27T11:49:15;2.20;;;2.10;;
11691;SDS011;33659;42.672;23.354;2024-01-27T11:51:42;2.30;;;2.20;;
11691;SDS011;33659;42.672;23.354;2024-01-27T11:54:10;4.07;;;1.77;;
11691;SDS011;33659;42.672;23.354;2024-01-27T11:56:36;2.70;;;2.50;;
11691;SDS011;33659;42.672;23.354;2024-01-27T11:59:03;2.50;;;2.30;;
11691;SDS011;33659;42.672;23.354;2024-01-27T12:01:30;2.10;;;2.00;;
11691;SDS011;33659;42.672;23.354;2024-01-27T12:03:57;2.23;;;2.03;;
11691;SDS011;33659;42.672;23.354;2024-01-27T12:06:25;3.07;;;2.50;;
11691;SDS011;33659;42.672;23.354;2024-01-27T12:08:53;3.20;;;2.27;;
11691;SDS011;33659;42.672;23.354;2024-01-27T12:11:21;2.87;;;2.13;;
11691;SDS011;33659;42.672;23.354;2024-01-27T12:13:47;1.70;;;1.60;;
11691;SDS011;33659;42.672;23.354;2024-01-27T12:16:14;2.33;;;2.20;;
11691;SDS011;33659;42.672;23.354;2024-01-27T12:18:43;1.97;;;1.87;;
11691;SDS011;33659;42.672;23.354;2024-01-27T12:21:09;2.40;;;2.20;;
11691;SDS011;33659;42.672;23.354;2024-01-27T12:23:37;2.33;;;2.00;;
11691;SDS011;33659;42.672;23.354;2024-01-27T12:26:15;2.77;;;2.20;;
11691;SDS011;33659;42.672;23.354;2024-01-27T12:28:45;2.03;;;1.93;;
11691;SDS011;33659;42.672;23.354;2024-01-27T12:31:12;2.40;;;2.20;;
11691;SDS011;33659;42.672;23.354;2024-01-27T12:33:42;2.43;;;2.03;;
11691;SDS011;33659;42.672;23.354;2024-01-27T12:36:14;2.10;;;2.00;;
11691;SDS011;33659;42.672;23.354;2024-01-27T12:38:42;1.97;;;1.77;;
11691;SDS011;33659;42.672;23.354;2024-01-27T12:41:12;1.50;;;1.40;;
11691;SDS011;33659;42.672;23.354;2024-01-27T12:43:38;2.10;;;1.77;;
11691;SDS011;33659;42.672;23.354;2024-01-27T12:46:05;3.10;;;1.97;;
11691;SDS011;33659;42.672;23.354;2024-01-27T12:48:32;1.83;;;1.73;;
11691;SDS011;33659;42.672;23.354;2024-01-27T12:50:58;5.50;;;2.20;;
11691;SDS011;33659;42.672;23.354;2024-01-27T12:53:25;3.00;;;2.13;;
11691;SDS011;33659;42.672;23.354;2024-01-27T12:55:53;2.70;;;1.70;;
11691;SDS011;33659;42.672;23.354;2024-01-27T12:58:21;1.67;;;1.57;;
11691;SDS011;33659;42.672;23.354;2024-01-27T13:00:47;3.43;;;1.87;;
11691;SDS011;33659;42.672;23.354;2024-01-27T13:03:14;1.77;;;1.67;;
11691;SDS011;33659;42.672;23.354;2024-01-27T13:05:41;2.47;;;1.90;;
11691;SDS011;33659;42.672;23.354;2024-01-27T13:08:08;3.13;;;1.93;;
11691;SDS011;33659;42.672;23.354;2024-01-27T13:10:35;2.53;;;1.90;;
11691;SDS011;33659;42.672;23.354;2024-01-27T13:13:03;1.60;;;1.50;;
11691;SDS011;33659;42.672;23.354;2024-01-27T13:15:30;5.60;;;1.67;;
11691;SDS011;33659;42.672;23.354;2024-01-27T13:17:56;1.67;;;1.57;;
11691;SDS011;33659;42.672;23.354;2024-01-27T13:20:23;2.90;;;2.07;;
11691;SDS011;33659;42.672;23.354;2024-01-27T13:22:50;2.23;;;1.80;;
11691;SDS011;33659;42.672;23.354;2024-01-27T13:25:18;1.30;;;1.20;;
11691;SDS011;33659;42.672;23.354;2024-01-27T13:27:45;1.37;;;1.27;;
11691;SDS011;33659;42.672;23.354;2024-01-27T13:30:13;1.93;;;1.47;;
11691;SDS011;33659;42.672;23.354;2024-01-27T13:32:41;2.13;;;1.70;;
11691;SDS011;33659;42.672;23.354;2024-01-27T13:35:08;1.80;;;1.67;;
11691;SDS011;33659;42.672;23.354;2024-01-27T13:37:35;3.77;;;1.87;;
11691;SDS011;33659;42.672;23.354;2024-01-27T13:40:02;1.60;;;1.43;;
11691;SDS011;33659;42.672;23.354;2024-01-27T13:42:30;5.27;;;1.40;;
11691;SDS011;33659;42.672;23.354;2024-01-27T13:44:56;1.77;;;1.67;;
11691;SDS011;33659;42.672;23.354;2024-01-27T13:47:24;3.43;;;2.03;;
11691;SDS011;33659;42.672;23.354;2024-01-27T13:49:51;1.73;;;1.63;;
11691;SDS011;33659;42.672;23.354;2024-01-27T13:52:18;1.70;;;1.60;;
11691;SDS011;33659;42.672;23.354;2024-01-27T13:54:44;2.33;;;1.43;;
11691;SDS011;33659;42.672;23.354;2024-01-27T13:57:11;1.63;;;1.40;;
11691;SDS011;33659;42.672;23.354;2024-01-27T13:59:38;1.90;;;1.80;;
11691;SDS011;33659;42.672;23.354;2024-01-27T14:02:05;1.60;;;1.57;;
11691;SDS011;33659;42.672;23.354;2024-01-27T14:04:33;1.50;;;1.40;;
11691;SDS011;33659;42.672;23.354;2024-01-27T14:07:00;1.47;;;1.37;;
11691;SDS011;33659;42.672;23.354;2024-01-27T14:09:28;2.00;;;1.80;;
11691;SDS011;33659;42.672;23.354;2024-01-27T14:11:55;1.50;;;1.40;;
11691;SDS011;33659;42.672;23.354;2024-01-27T14:14:21;1.90;;;1.43;;
11691;SDS011;33659;42.672;23.354;2024-01-27T14:16:48;1.60;;;1.50;;
11691;SDS011;33659;42.672;23.354;2024-01-27T14:19:15;3.70;;;2.23;;
11691;SDS011;33659;42.672;23.354;2024-01-27T14:21:43;2.70;;;2.00;;
11691;SDS011;33659;42.672;23.354;2024-01-27T14:24:09;1.43;;;1.37;;
11691;SDS011;33659;42.672;23.354;2024-01-27T14:26:36;1.87;;;1.77;;
11691;SDS011;33659;42.672;23.354;2024-01-27T14:29:03;2.23;;;1.50;;
11691;SDS011;33659;42.672;23.354;2024-01-27T14:31:31;1.63;;;1.53;;
11691;SDS011;33659;42.672;23.354;2024-01-27T14:33:58;1.80;;;1.70;;